PAAK Airport Information

Runway Information
Runway 16 Length 4500 ft width 100 ft
Elevation 56 ft Threshold 0 ft Heading 165
Runway 34 Length 4500 ft Width 100 ft
Elevation 46 ft Threshold 0 ft Heading 345
Airport Frequencies
Airport Navaids
Airport Weather Information & NOTAM
ADDS - METARS form results

(0807 UTC 15 November 2018)
Data provider http://aviationweather.gov/metar/data/
 
METAR text: PAAK 150756Z AUTO 33008KT 10SM OVC043 04/M04 A3003 RMK AO2 SLP169 T00391044 PNO $
Conditions at: PAAK (ATKA , AK, US) observed 0756 UTC 15 November 2018
Temperature: 3.9°C (39°F)
Dewpoint: -4.4°C (24°F) [RH = 55%]
Pressure (altimeter): 30.03 inches Hg (1017.0 mb)
[Sea-level pressure: 1016.9 mb]
Winds: from the NNW (330 degrees) at 9 MPH (8 knots; 4.1 m/s)
Visibility: 10 or more miles (16+ km)
Ceiling: 4300 feet AGL
Clouds: overcast cloud deck at 4300 feet AGL
Weather:
SOME DATA ABOVE MAY BE INACCURATE!!!
"$" is an indication the sensor requires maintenance